Aeroporto :
LOGIN :

Iscrizione | Disclaimer

   EN    FR    IT 

 










Sommario :    VFR   VFR Marginale   IFR   IFR Intensivo   IFR Molto Intensivo
Visibilità : 
Base nubi : 
>= 8 km
>= 3000ft
5 / 8 km
1000 / 3000 ft
1500m / 5 km
500 / 1000 ft
800 / 1500m
200 / 500 ft
< 800m
< 200 ft
Simboli :   Temporali  Nebbia  Neve Forte  Precipitazioni Forti  Vento > 20 kt
SIGMETs :   Varie  Temporali  Ghiacco  Turbolenza  Onda orograficha  Ceneri Vulcaniche






- Altitudine del aeroporto : 755 ft
- Codice IATA : KSC


LZKZ - Kosice

ULTIMO METAR :
  • 122330Z 21005KT 9999 -RA NSC 14/08 Q1007

METARs OBSOLETI :
  • 122300Z 23004KT CAVOK 15/08 Q1007
  • 122230Z 21004KT 9999 -RA NSC 14/08 Q1007
  • 122200Z 22005KT CAVOK 13/08 Q1007
  • 122132Z 23004KT CAVOK 12/08 Q1007
  • 122100Z VRB02KT CAVOK 10/07 Q1007

TAF TAF LZKZ
Valido dal 13 a 00 ore il 14 a 00 ore UTC


122300Z 1300/1400 22005KT 9999 -RA SCT030 OVC060
TEMPO 1309/1314 5000 RA BKN007 OVC030
BECMG 1316/1318 18010KT



MetMap, La meteo Aeronautica in un colpo d'occhio ! - Copyright ORBIFLY Dicembre 2007 - Disclaimer

ORBIFLY MET'MAP TEAM :

Programmazione e sviluppo : Alexandra Zaïnal
Concezione e sviluppo : Baudouin d'Aumeries
Co-Programmazione e sviluppo : Marc-Olivier Méhu
Supporto tecnico e logistico : Manuel Goepfert
Aiuto per la traduzione : Arnaldo La Scala

Contatto : metmap@orbifly.com




FONTI E CREDITI :

   NOAA